Wetterdaten: aktuell Sonntag, 26.01.2020 15:46
Datum Zeit Temp. I. Temp. A. Feuchte I. Feuchte A. Luftdruck Regen Wind Richtung Richtung Taupunkt Windchill Windben
26.01.2020 15:46 25,8 C 5,2 C 23 % 78 % 974,0 hPa 0,0 l/m 5,8 km/h (2 Bft) SO 133 1,7 C 5,2 C 5,8 km/h (2 Bft)
26.01.2020 14:46 25,9 C 5,4 C 23 % 76 % 974,0 hPa 0,0 l/m 4,3 km/h (1 Bft) SO 134 1,5 C 5,4 C 6,5 km/h (2 Bft)
26.01.2020 13:46 26,1 C 5,3 C 23 % 73 % 975,0 hPa 0,0 l/m 7,9 km/h (2 Bft) O-SO 123 0,9 C 4,0 C 10,1 km/h (2 Bft)
26.01.2020 12:46 26,1 C 5,4 C 23 % 79 % 975,0 hPa 0,0 l/m 3,6 km/h (1 Bft) SO 136 2,1 C 5,4 C 3,6 km/h (1 Bft)
26.01.2020 11:46 26,2 C 3,8 C 23 % 97 % 976,3 hPa 0,0 l/m 0,0 km/h (0 Bft) S-SO 150 3,4 C 3,8 C 0,0 km/h (0 Bft)
26.01.2020 10:46 26,3 C 2,0 C 23 % 100 % 976,5 hPa 0,0 l/m 0,0 km/h (0 Bft) S-SO 150 2,0 C 2,0 C 5,0 km/h (1 Bft)
26.01.2020 09:46 26,3 C 0,7 C 23 % 100 % 976,7 hPa 0,0 l/m 0,0 km/h (0 Bft) S-SO 150 0,7 C 0,7 C 0,0 km/h (0 Bft)
26.01.2020 08:46 26,5 C -0,1 C 23 % 100 % 976,8 hPa 0,0 l/m 0,0 km/h (0 Bft) S-SO 150 -0,1 C -0,1 C 0,0 km/h (0 Bft)
26.01.2020 07:46 26,6 C -0,5 C 23 % 100 % 976,9 hPa 0,0 l/m 0,0 km/h (0 Bft) S-SO 150 -0,5 C -0,5 C 0,0 km/h (0 Bft)
26.01.2020 06:46 26,8 C -0,6 C 23 % 100 % 976,9 hPa 0,0 l/m 0,0 km/h (0 Bft) S-SO 150 -0,6 C -0,6 C 0,0 km/h (0 Bft)
26.01.2020 05:46 27,1 C -0,7 C 22 % 100 % 978,0 hPa 0,0 l/m 0,0 km/h (0 Bft) S-SO 150 -0,7 C -0,7 C 0,0 km/h (0 Bft)
26.01.2020 04:46 27,6 C -0,7 C 22 % 100 % 978,0 hPa 0,0 l/m 0,0 km/h (0 Bft) S-SO 150 -0,7 C -0,7 C 0,0 km/h (0 Bft)
26.01.2020 03:46 28,1 C -0,7 C 22 % 100 % 978,0 hPa 0,0 l/m 0,0 km/h (0 Bft) S-SO 150 -0,7 C -0,7 C 0,0 km/h (0 Bft)
26.01.2020 02:46 28,8 C -0,6 C 22 % 100 % 979,0 hPa 0,0 l/m 0,0 km/h (0 Bft) S-SO 150 -0,6 C -0,6 C 0,0 km/h (0 Bft)
26.01.2020 01:46 29,4 C -0,5 C 22 % 100 % 979,0 hPa 0,0 l/m 0,0 km/h (0 Bft) S-SO 150 -0,5 C -0,5 C 0,0 km/h (0 Bft)
26.01.2020 00:46 29,3 C -0,5 C 23 % 100 % 979,0 hPa 0,0 l/m 0,0 km/h (0 Bft) S-SO 150 -0,5 C -0,5 C 0,0 km/h (0 Bft)
25.01.2020 23:46 28,1 C -0,4 C 24 % 98 % 979,0 hPa 0,0 l/m 0,0 km/h (0 Bft) S-SO 150 -0,7 C -0,4 C 0,0 km/h (0 Bft)
25.01.2020 22:46 27,7 C -0,4 C 24 % 97 % 979,0 hPa 0,0 l/m 0,0 km/h (0 Bft) S-SO 150 -0,8 C -0,4 C 0,0 km/h (0 Bft)
25.01.2020 21:46 27,9 C -0,2 C 24 % 96 % 980,0 hPa 0,0 l/m 0,0 km/h (0 Bft) S-SO 149 -0,8 C -0,2 C 0,0 km/h (0 Bft)
25.01.2020 20:46 28,3 C 0,0 C 26 % 96 % 980,0 hPa 0,0 l/m 0,0 km/h (0 Bft) S-SO 149 -0,6 C 0,0 C 0,0 km/h (0 Bft)
25.01.2020 19:46 27,4 C 0,1 C 26 % 95 % 978,9 hPa 0,0 l/m 0,0 km/h (0 Bft) S-SO 150 -0,6 C 0,1 C 0,0 km/h (0 Bft)
25.01.2020 18:46 27,0 C 0,1 C 26 % 94 % 978,9 hPa 0,0 l/m 0,0 km/h (0 Bft) S-SO 149 -0,7 C 0,1 C 0,0 km/h (0 Bft)
25.01.2020 17:46 26,8 C 0,2 C 25 % 91 % 978,9 hPa 0,0 l/m 0,0 km/h (0 Bft) S-SO 149 -1,1 C 0,2 C 0,0 km/h (0 Bft)
25.01.2020 16:46 26,0 C 1,0 C 26 % 90 % 977,7 hPa 0,0 l/m 0,0 km/h (0 Bft) S-SO 150 -0,5 C 1,0 C 0,0 km/h (0 Bft)
25.01.2020 16:00 24,8 C 1,5 C 26 % 87 % 977,6 hPa 0,0 l/m 0,0 km/h (0 Bft) S-SO 150 -0,4 C 1,5 C 0,0 km/h (0 Bft)
_ Min-Zeit 16:00 05:01 01:16 13:18 14:41 - 16:00 - - 17:49 05:01 16:00
Minimum _ 24,8 C -0,8 C 22 % 71 % 974,0 hPa - 0,0 km/h (0 Bft) - - -1,2 C -0,8 C 0,0 km/h (0 Bft)
_ Max-Zeit 00:59 13:07 20:12 23:59 22:50 16:00 13:16 - - 12:15 13:07 13:39
Maximum _ 29,5 C 5,7 C 27 % 100 % 980,0 hPa 0,0 l/m 10,1 km/h
SO (2 Bft)
- - 3,8 C 5,7 C 13,3 km/h
SO (3 Bft)
Durchschnitt _ 27,2 C 0,9 C 24 % 94 % 977,6 hPa #0,0 l/m 0,8 km/h (0 Bft) SO - 0,0 C 0,8 C 1,1 km/h (1 Bft)